sensor_id;sensor_type;location;lat;lon;timestamp;temperature;humidity
30288;DHT22;17103;48.316;11.558;2022-11-18T00:01:14;13.00;55.10
30288;DHT22;17103;48.316;11.558;2022-11-18T00:03:40;12.40;54.80
30288;DHT22;17103;48.316;11.558;2022-11-18T00:06:07;12.90;55.10
30288;DHT22;17103;48.316;11.558;2022-11-18T00:08:35;12.40;54.50
30288;DHT22;17103;48.316;11.558;2022-11-18T00:11:09;12.40;54.50
30288;DHT22;17103;48.316;11.558;2022-11-18T00:13:36;12.40;54.80
30288;DHT22;17103;48.316;11.558;2022-11-18T00:16:21;12.50;54.20
30288;DHT22;17103;48.316;11.558;2022-11-18T00:18:47;12.50;54.10
30288;DHT22;17103;48.316;11.558;2022-11-18T00:21:13;12.50;54.40
30288;DHT22;17103;48.316;11.558;2022-11-18T00:23:39;12.60;54.40
30288;DHT22;17103;48.316;11.558;2022-11-18T00:26:10;13.10;55.10
30288;DHT22;17103;48.316;11.558;2022-11-18T00:28:37;12.60;55.90
30288;DHT22;17103;48.316;11.558;2022-11-18T00:31:05;12.70;56.60
30288;DHT22;17103;48.316;11.558;2022-11-18T00:33:31;13.00;56.30
30288;DHT22;17103;48.316;11.558;2022-11-18T00:35:57;12.90;56.40
30288;DHT22;17103;48.316;11.558;2022-11-18T00:38:24;13.00;56.30
30288;DHT22;17103;48.316;11.558;2022-11-18T00:40:59;13.80;56.70
30288;DHT22;17103;48.316;11.558;2022-11-18T00:43:24;13.30;56.10
30288;DHT22;17103;48.316;11.558;2022-11-18T00:45:50;13.50;55.80
30288;DHT22;17103;48.316;11.558;2022-11-18T00:48:15;13.60;55.40
30288;DHT22;17103;48.316;11.558;2022-11-18T00:50:49;13.80;55.10
30288;DHT22;17103;48.316;11.558;2022-11-18T00:53:15;13.90;54.70
30288;DHT22;17103;48.316;11.558;2022-11-18T00:55:41;14.20;54.70
30288;DHT22;17103;48.316;11.558;2022-11-18T00:58:06;14.80;54.80
30288;DHT22;17103;48.316;11.558;2022-11-18T01:00:33;14.40;54.10
30288;DHT22;17103;48.316;11.558;2022-11-18T01:02:58;14.40;53.70
30288;DHT22;17103;48.316;11.558;2022-11-18T01:05:24;14.90;53.80
30288;DHT22;17103;48.316;11.558;2022-11-18T01:07:50;14.90;53.50
30288;DHT22;17103;48.316;11.558;2022-11-18T01:10:15;14.80;53.10
30288;DHT22;17103;48.316;11.558;2022-11-18T01:12:41;14.90;52.60
30288;DHT22;17103;48.316;11.558;2022-11-18T01:15:25;15.00;52.30
30288;DHT22;17103;48.316;11.558;2022-11-18T01:17:51;15.60;52.60
30288;DHT22;17103;48.316;11.558;2022-11-18T01:20:17;15.10;52.00
30288;DHT22;17103;48.316;11.558;2022-11-18T01:22:43;15.20;51.70
30288;DHT22;17103;48.316;11.558;2022-11-18T01:25:09;15.20;51.20
30288;DHT22;17103;48.316;11.558;2022-11-18T01:27:34;15.20;51.20
30288;DHT22;17103;48.316;11.558;2022-11-18T01:30:00;15.20;51.00
30288;DHT22;17103;48.316;11.558;2022-11-18T01:32:27;15.20;50.90
30288;DHT22;17103;48.316;11.558;2022-11-18T01:34:52;15.30;50.80
30288;DHT22;17103;48.316;11.558;2022-11-18T01:37:18;15.40;50.80
30288;DHT22;17103;48.316;11.558;2022-11-18T01:39:43;15.20;50.60
30288;DHT22;17103;48.316;11.558;2022-11-18T01:42:16;15.20;50.60
30288;DHT22;17103;48.316;11.558;2022-11-18T01:45:19;15.20;50.50
30288;DHT22;17103;48.316;11.558;2022-11-18T01:47:53;15.30;50.60
30288;DHT22;17103;48.316;11.558;2022-11-18T01:50:21;15.30;50.50
30288;DHT22;17103;48.316;11.558;2022-11-18T01:52:47;15.30;50.30
30288;DHT22;17103;48.316;11.558;2022-11-18T01:55:22;15.40;50.40
30288;DHT22;17103;48.316;11.558;2022-11-18T01:57:49;15.30;50.20
30288;DHT22;17103;48.316;11.558;2022-11-18T02:00:16;15.30;50.30
30288;DHT22;17103;48.316;11.558;2022-11-18T02:02:42;15.30;50.30
30288;DHT22;17103;48.316;11.558;2022-11-18T02:05:09;15.40;50.30
30288;DHT22;17103;48.316;11.558;2022-11-18T02:07:39;15.40;50.20
30288;DHT22;17103;48.316;11.558;2022-11-18T02:10:07;15.40;50.10
30288;DHT22;17103;48.316;11.558;2022-11-18T02:12:34;15.50;50.20
30288;DHT22;17103;48.316;11.558;2022-11-18T02:15:01;15.50;50.50
30288;DHT22;17103;48.316;11.558;2022-11-18T02:20:23;15.50;49.90
30288;DHT22;17103;48.316;11.558;2022-11-18T02:28:28;15.60;49.50
30288;DHT22;17103;48.316;11.558;2022-11-18T02:31:07;15.60;49.30
30288;DHT22;17103;48.316;11.558;2022-11-18T02:33:50;15.60;49.20
30288;DHT22;17103;48.316;11.558;2022-11-18T02:36:24;15.50;49.20
30288;DHT22;17103;48.316;11.558;2022-11-18T02:38:57;15.50;49.10
30288;DHT22;17103;48.316;11.558;2022-11-18T02:41:27;15.50;49.20
30288;DHT22;17103;48.316;11.558;2022-11-18T02:44:07;15.50;49.20
30288;DHT22;17103;48.316;11.558;2022-11-18T02:46:36;15.50;49.20
30288;DHT22;17103;48.316;11.558;2022-11-18T02:49:07;15.40;49.30
30288;DHT22;17103;48.316;11.558;2022-11-18T02:51:34;16.00;49.70
30288;DHT22;17103;48.316;11.558;2022-11-18T02:54:07;15.40;49.30
30288;DHT22;17103;48.316;11.558;2022-11-18T02:56:34;15.40;49.20
30288;DHT22;17103;48.316;11.558;2022-11-18T02:59:02;16.00;49.70
30288;DHT22;17103;48.316;11.558;2022-11-18T03:01:29;15.70;49.30
30288;DHT22;17103;48.316;11.558;2022-11-18T03:03:56;16.10;49.70
30288;DHT22;17103;48.316;11.558;2022-11-18T03:06:38;15.40;49.20
30288;DHT22;17103;48.316;11.558;2022-11-18T03:09:14;15.40;49.20
30288;DHT22;17103;48.316;11.558;2022-11-18T03:11:50;15.30;49.20
30288;DHT22;17103;48.316;11.558;2022-11-18T03:17:33;15.40;49.30
30288;DHT22;17103;48.316;11.558;2022-11-18T03:20:11;15.40;49.40
30288;DHT22;17103;48.316;11.558;2022-11-18T03:28:03;15.50;49.30
30288;DHT22;17103;48.316;11.558;2022-11-18T03:30:32;15.80;49.40
30288;DHT22;17103;48.316;11.558;2022-11-18T03:33:07;15.50;49.10
30288;DHT22;17103;48.316;11.558;2022-11-18T03:35:35;15.50;49.10
30288;DHT22;17103;48.316;11.558;2022-11-18T03:38:06;15.60;49.20
30288;DHT22;17103;48.316;11.558;2022-11-18T03:40:36;15.50;48.90
30288;DHT22;17103;48.316;11.558;2022-11-18T03:43:07;15.50;48.80
30288;DHT22;17103;48.316;11.558;2022-11-18T03:45:43;15.50;48.90
30288;DHT22;17103;48.316;11.558;2022-11-18T03:48:14;15.40;48.80
30288;DHT22;17103;48.316;11.558;2022-11-18T03:50:47;15.40;49.00
30288;DHT22;17103;48.316;11.558;2022-11-18T03:53:16;15.40;49.10
30288;DHT22;17103;48.316;11.558;2022-11-18T03:55:46;15.50;49.20
30288;DHT22;17103;48.316;11.558;2022-11-18T03:58:39;15.30;49.00
30288;DHT22;17103;48.316;11.558;2022-11-18T04:01:41;15.30;49.10
30288;DHT22;17103;48.316;11.558;2022-11-18T04:04:09;15.30;49.00
30288;DHT22;17103;48.316;11.558;2022-11-18T04:06:48;14.80;48.20
30288;DHT22;17103;48.316;11.558;2022-11-18T04:09:19;15.10;49.00
30288;DHT22;17103;48.316;11.558;2022-11-18T04:11:52;15.00;48.90
30288;DHT22;17103;48.316;11.558;2022-11-18T04:14:35;14.90;49.00
30288;DHT22;17103;48.316;11.558;2022-11-18T04:17:13;14.80;49.10
30288;DHT22;17103;48.316;11.558;2022-11-18T04:19:39;14.70;49.30
30288;DHT22;17103;48.316;11.558;2022-11-18T04:22:05;14.60;49.20
30288;DHT22;17103;48.316;11.558;2022-11-18T04:24:31;14.50;49.50
30288;DHT22;17103;48.316;11.558;2022-11-18T04:26:57;14.40;49.30
30288;DHT22;17103;48.316;11.558;2022-11-18T04:29:23;14.30;49.70
30288;DHT22;17103;48.316;11.558;2022-11-18T04:31:49;14.20;49.70
30288;DHT22;17103;48.316;11.558;2022-11-18T04:34:14;14.10;50.00
30288;DHT22;17103;48.316;11.558;2022-11-18T04:36:40;14.00;50.00
30288;DHT22;17103;48.316;11.558;2022-11-18T04:39:05;14.00;50.20
30288;DHT22;17103;48.316;11.558;2022-11-18T04:41:31;13.90;50.60
30288;DHT22;17103;48.316;11.558;2022-11-18T04:44:16;13.90;50.70
30288;DHT22;17103;48.316;11.558;2022-11-18T04:46:42;13.90;50.70
30288;DHT22;17103;48.316;11.558;2022-11-18T04:49:13;13.90;50.60
30288;DHT22;17103;48.316;11.558;2022-11-18T04:51:39;14.00;50.40
30288;DHT22;17103;48.316;11.558;2022-11-18T04:54:05;14.00;50.40
30288;DHT22;17103;48.316;11.558;2022-11-18T04:56:31;14.20;50.30
30288;DHT22;17103;48.316;11.558;2022-11-18T04:59:01;13.90;50.30
30288;DHT22;17103;48.316;11.558;2022-11-18T05:01:28;14.00;50.40
30288;DHT22;17103;48.316;11.558;2022-11-18T05:03:54;14.00;50.40
30288;DHT22;17103;48.316;11.558;2022-11-18T05:06:20;14.00;50.50
30288;DHT22;17103;48.316;11.558;2022-11-18T05:08:46;14.70;51.10
30288;DHT22;17103;48.316;11.558;2022-11-18T05:11:12;14.10;50.30
30288;DHT22;17103;48.316;11.558;2022-11-18T05:13:56;14.10;50.20
30288;DHT22;17103;48.316;11.558;2022-11-18T05:16:21;14.10;50.30
30288;DHT22;17103;48.316;11.558;2022-11-18T05:18:47;14.10;50.10
30288;DHT22;17103;48.316;11.558;2022-11-18T05:21:12;14.10;49.90
30288;DHT22;17103;48.316;11.558;2022-11-18T05:23:38;14.10;50.00
30288;DHT22;17103;48.316;11.558;2022-11-18T05:26:08;14.00;50.10
30288;DHT22;17103;48.316;11.558;2022-11-18T05:28:34;14.00;50.00
30288;DHT22;17103;48.316;11.558;2022-11-18T05:31:09;14.00;50.30
30288;DHT22;17103;48.316;11.558;2022-11-18T05:33:36;14.10;50.10
30288;DHT22;17103;48.316;11.558;2022-11-18T05:36:03;14.00;50.00
30288;DHT22;17103;48.316;11.558;2022-11-18T05:38:31;13.90;49.90
30288;DHT22;17103;48.316;11.558;2022-11-18T05:40:57;14.10;50.20
30288;DHT22;17103;48.316;11.558;2022-11-18T05:43:22;13.90;50.30
30288;DHT22;17103;48.316;11.558;2022-11-18T05:45:49;14.00;51.00
30288;DHT22;17103;48.316;11.558;2022-11-18T05:48:15;13.70;50.30
30288;DHT22;17103;48.316;11.558;2022-11-18T05:50:41;13.60;50.30
30288;DHT22;17103;48.316;11.558;2022-11-18T05:53:12;13.70;50.50
30288;DHT22;17103;48.316;11.558;2022-11-18T05:55:53;13.60;50.60
30288;DHT22;17103;48.316;11.558;2022-11-18T05:58:21;13.50;50.60
30288;DHT22;17103;48.316;11.558;2022-11-18T06:00:49;13.50;50.40
30288;DHT22;17103;48.316;11.558;2022-11-18T06:03:19;13.60;50.50
30288;DHT22;17103;48.316;11.558;2022-11-18T06:05:46;13.50;50.30
30288;DHT22;17103;48.316;11.558;2022-11-18T06:08:17;13.30;50.30
30288;DHT22;17103;48.316;11.558;2022-11-18T06:10:44;14.00;51.10
30288;DHT22;17103;48.316;11.558;2022-11-18T06:13:27;13.10;51.10
30288;DHT22;17103;48.316;11.558;2022-11-18T06:15:54;13.10;50.80
30288;DHT22;17103;48.316;11.558;2022-11-18T06:18:23;12.90;50.80
30288;DHT22;17103;48.316;11.558;2022-11-18T06:20:52;12.80;51.10
30288;DHT22;17103;48.316;11.558;2022-11-18T06:23:19;12.70;50.90
30288;DHT22;17103;48.316;11.558;2022-11-18T06:25:45;12.60;51.20
30288;DHT22;17103;48.316;11.558;2022-11-18T06:28:13;12.60;51.30
30288;DHT22;17103;48.316;11.558;2022-11-18T06:30:39;12.40;51.30
30288;DHT22;17103;48.316;11.558;2022-11-18T06:33:05;12.40;51.80
30288;DHT22;17103;48.316;11.558;2022-11-18T06:35:31;12.20;52.30
30288;DHT22;17103;48.316;11.558;2022-11-18T06:37:56;12.20;52.60
30288;DHT22;17103;48.316;11.558;2022-11-18T06:40:22;12.00;53.20
30288;DHT22;17103;48.316;11.558;2022-11-18T06:42:48;11.90;53.50
30288;DHT22;17103;48.316;11.558;2022-11-18T06:45:32;12.60;53.90
30288;DHT22;17103;48.316;11.558;2022-11-18T06:47:58;11.80;54.20
30288;DHT22;17103;48.316;11.558;2022-11-18T06:50:25;11.70;53.90
30288;DHT22;17103;48.316;11.558;2022-11-18T06:52:51;11.70;54.70
30288;DHT22;17103;48.316;11.558;2022-11-18T06:55:17;11.60;54.30
30288;DHT22;17103;48.316;11.558;2022-11-18T06:57:43;12.40;55.80
30288;DHT22;17103;48.316;11.558;2022-11-18T07:00:09;11.60;55.10
30288;DHT22;17103;48.316;11.558;2022-11-18T07:02:38;11.60;54.90
30288;DHT22;17103;48.316;11.558;2022-11-18T07:05:04;11.50;56.00
30288;DHT22;17103;48.316;11.558;2022-11-18T07:07:30;11.50;55.90
30288;DHT22;17103;48.316;11.558;2022-11-18T07:09:56;11.80;56.00
30288;DHT22;17103;48.316;11.558;2022-11-18T07:12:21;11.90;56.80
30288;DHT22;17103;48.316;11.558;2022-11-18T07:14:47;11.40;56.70
30288;DHT22;17103;48.316;11.558;2022-11-18T07:17:12;11.30;57.00
30288;DHT22;17103;48.316;11.558;2022-11-18T07:19:39;11.30;57.30
30288;DHT22;17103;48.316;11.558;2022-11-18T07:22:04;11.40;58.00
30288;DHT22;17103;48.316;11.558;2022-11-18T07:24:32;11.20;58.00
30288;DHT22;17103;48.316;11.558;2022-11-18T07:26:58;11.10;58.20
30288;DHT22;17103;48.316;11.558;2022-11-18T07:29:24;11.10;58.60
30288;DHT22;17103;48.316;11.558;2022-11-18T07:31:50;11.20;59.10
30288;DHT22;17103;48.316;11.558;2022-11-18T07:34:16;11.00;59.30
30288;DHT22;17103;48.316;11.558;2022-11-18T07:36:41;10.90;59.60
30288;DHT22;17103;48.316;11.558;2022-11-18T07:39:08;11.00;59.80
30288;DHT22;17103;48.316;11.558;2022-11-18T07:41:34;11.10;60.00
30288;DHT22;17103;48.316;11.558;2022-11-18T07:44:01;10.90;59.70
30288;DHT22;17103;48.316;11.558;2022-11-18T07:46:32;11.10;59.60
30288;DHT22;17103;48.316;11.558;2022-11-18T07:49:00;10.70;59.00
30288;DHT22;17103;48.316;11.558;2022-11-18T07:51:29;10.70;59.20
30288;DHT22;17103;48.316;11.558;2022-11-18T07:53:56;10.70;59.40
30288;DHT22;17103;48.316;11.558;2022-11-18T07:56:22;10.50;59.40
30288;DHT22;17103;48.316;11.558;2022-11-18T07:58:52;10.60;59.40
30288;DHT22;17103;48.316;11.558;2022-11-18T08:01:20;11.10;59.90
30288;DHT22;17103;48.316;11.558;2022-11-18T08:03:46;11.40;60.20
30288;DHT22;17103;48.316;11.558;2022-11-18T08:06:14;11.50;60.10
30288;DHT22;17103;48.316;11.558;2022-11-18T08:08:41;11.30;59.90
30288;DHT22;17103;48.316;11.558;2022-11-18T08:11:10;10.70;59.60
30288;DHT22;17103;48.316;11.558;2022-11-18T08:13:39;10.60;59.60
30288;DHT22;17103;48.316;11.558;2022-11-18T08:16:14;10.60;59.50
30288;DHT22;17103;48.316;11.558;2022-11-18T08:18:40;10.60;59.50
30288;DHT22;17103;48.316;11.558;2022-11-18T08:21:05;10.60;60.00
30288;DHT22;17103;48.316;11.558;2022-11-18T08:23:31;10.60;59.50
30288;DHT22;17103;48.316;11.558;2022-11-18T08:26:23;10.60;59.40
30288;DHT22;17103;48.316;11.558;2022-11-18T08:28:56;10.60;60.00
30288;DHT22;17103;48.316;11.558;2022-11-18T08:31:24;10.60;59.70
30288;DHT22;17103;48.316;11.558;2022-11-18T08:34:01;10.60;59.80
30288;DHT22;17103;48.316;11.558;2022-11-18T08:37:29;10.60;59.50
30288;DHT22;17103;48.316;11.558;2022-11-18T08:39:46;10.50;59.10
30288;DHT22;17103;48.316;11.558;2022-11-18T08:42:12;11.00;59.40
30288;DHT22;17103;48.316;11.558;2022-11-18T08:44:38;10.40;59.10
30288;DHT22;17103;48.316;11.558;2022-11-18T08:47:04;10.40;59.30
30288;DHT22;17103;48.316;11.558;2022-11-18T08:49:30;10.20;59.20
30288;DHT22;17103;48.316;11.558;2022-11-18T08:51:58;10.20;59.80
30288;DHT22;17103;48.316;11.558;2022-11-18T08:54:24;10.10;59.90
30288;DHT22;17103;48.316;11.558;2022-11-18T08:56:51;10.20;59.90
30288;DHT22;17103;48.316;11.558;2022-11-18T08:59:17;10.10;59.80
30288;DHT22;17103;48.316;11.558;2022-11-18T09:01:42;10.10;59.90
30288;DHT22;17103;48.316;11.558;2022-11-18T09:04:09;10.10;59.90
30288;DHT22;17103;48.316;11.558;2022-11-18T09:06:36;10.00;59.90
30288;DHT22;17103;48.316;11.558;2022-11-18T09:09:03;10.50;60.10
30288;DHT22;17103;48.316;11.558;2022-11-18T09:11:29;9.90;60.50
30288;DHT22;17103;48.316;11.558;2022-11-18T09:13:56;10.00;59.70
30288;DHT22;17103;48.316;11.558;2022-11-18T09:16:23;10.00;59.70
30288;DHT22;17103;48.316;11.558;2022-11-18T09:18:50;10.10;59.80
30288;DHT22;17103;48.316;11.558;2022-11-18T09:21:17;10.10;59.70
30288;DHT22;17103;48.316;11.558;2022-11-18T09:23:43;10.10;59.60
30288;DHT22;17103;48.316;11.558;2022-11-18T09:26:15;10.10;58.90
30288;DHT22;17103;48.316;11.558;2022-11-18T09:28:41;10.10;59.20
30288;DHT22;17103;48.316;11.558;2022-11-18T09:31:09;10.10;59.40
30288;DHT22;17103;48.316;11.558;2022-11-18T09:33:36;10.10;59.60
30288;DHT22;17103;48.316;11.558;2022-11-18T09:36:03;10.10;59.60
30288;DHT22;17103;48.316;11.558;2022-11-18T09:38:29;10.20;59.30
30288;DHT22;17103;48.316;11.558;2022-11-18T09:41:10;10.20;59.10
30288;DHT22;17103;48.316;11.558;2022-11-18T09:49:42;10.40;60.10
30288;DHT22;17103;48.316;11.558;2022-11-18T09:54:44;10.50;59.70
30288;DHT22;17103;48.316;11.558;2022-11-18T09:57:15;10.50;59.00
30288;DHT22;17103;48.316;11.558;2022-11-18T09:59:43;10.50;58.40
30288;DHT22;17103;48.316;11.558;2022-11-18T10:04:46;10.50;57.50
30288;DHT22;17103;48.316;11.558;2022-11-18T10:07:46;11.00;58.10
30288;DHT22;17103;48.316;11.558;2022-11-18T10:10:18;10.50;57.70
30288;DHT22;17103;48.316;11.558;2022-11-18T10:12:55;10.60;57.50
30288;DHT22;17103;48.316;11.558;2022-11-18T10:18:04;10.70;57.30
30288;DHT22;17103;48.316;11.558;2022-11-18T10:20:51;10.60;56.70
30288;DHT22;17103;48.316;11.558;2022-11-18T10:23:28;10.70;57.20
30288;DHT22;17103;48.316;11.558;2022-11-18T10:25:56;10.70;56.80
30288;DHT22;17103;48.316;11.558;2022-11-18T10:28:25;10.70;56.80
30288;DHT22;17103;48.316;11.558;2022-11-18T10:30:54;11.20;57.10
30288;DHT22;17103;48.316;11.558;2022-11-18T10:33:28;10.80;57.10
30288;DHT22;17103;48.316;11.558;2022-11-18T10:38:43;10.70;56.80
30288;DHT22;17103;48.316;11.558;2022-11-18T10:41:15;10.80;57.00
30288;DHT22;17103;48.316;11.558;2022-11-18T10:43:54;10.80;56.60
30288;DHT22;17103;48.316;11.558;2022-11-18T10:46:24;10.80;56.60
30288;DHT22;17103;48.316;11.558;2022-11-18T10:51:45;10.80;57.00
30288;DHT22;17103;48.316;11.558;2022-11-18T10:54:17;11.30;57.80
30288;DHT22;17103;48.316;11.558;2022-11-18T10:59:30;11.30;57.60
30288;DHT22;17103;48.316;11.558;2022-11-18T11:04:44;10.70;57.70
30288;DHT22;17103;48.316;11.558;2022-11-18T11:07:23;10.70;57.90
30288;DHT22;17103;48.316;11.558;2022-11-18T11:12:42;10.80;58.60
30288;DHT22;17103;48.316;11.558;2022-11-18T11:15:23;10.70;58.50
30288;DHT22;17103;48.316;11.558;2022-11-18T11:17:57;10.70;58.30
30288;DHT22;17103;48.316;11.558;2022-11-18T11:20:42;10.70;58.50
30288;DHT22;17103;48.316;11.558;2022-11-18T11:23:13;10.70;58.70
30288;DHT22;17103;48.316;11.558;2022-11-18T11:25:45;10.80;59.00
30288;DHT22;17103;48.316;11.558;2022-11-18T11:28:35;10.70;58.90
30288;DHT22;17103;48.316;11.558;2022-11-18T11:31:37;10.70;58.90
30288;DHT22;17103;48.316;11.558;2022-11-18T11:34:14;11.20;59.70
30288;DHT22;17103;48.316;11.558;2022-11-18T11:37:17;10.70;59.10
30288;DHT22;17103;48.316;11.558;2022-11-18T11:40:02;10.70;59.70
30288;DHT22;17103;48.316;11.558;2022-11-18T11:48:28;11.40;60.50
30288;DHT22;17103;48.316;11.558;2022-11-18T11:50:46;10.60;59.80
30288;DHT22;17103;48.316;11.558;2022-11-18T11:59:11;10.60;60.00
30288;DHT22;17103;48.316;11.558;2022-11-18T12:04:50;10.60;59.80
30288;DHT22;17103;48.316;11.558;2022-11-18T12:07:21;10.60;60.30
30288;DHT22;17103;48.316;11.558;2022-11-18T12:10:16;10.60;59.80
30288;DHT22;17103;48.316;11.558;2022-11-18T12:12:59;10.60;60.40
30288;DHT22;17103;48.316;11.558;2022-11-18T12:20:46;10.60;60.50
30288;DHT22;17103;48.316;11.558;2022-11-18T12:23:25;10.60;60.90
30288;DHT22;17103;48.316;11.558;2022-11-18T12:25:53;10.60;60.80
30288;DHT22;17103;48.316;11.558;2022-11-18T12:33:51;10.70;61.20
30288;DHT22;17103;48.316;11.558;2022-11-18T12:38:54;10.70;59.80
30288;DHT22;17103;48.316;11.558;2022-11-18T12:44:40;10.60;59.50
30288;DHT22;17103;48.316;11.558;2022-11-18T12:47:08;10.60;59.30
30288;DHT22;17103;48.316;11.558;2022-11-18T12:54:59;10.50;59.10
30288;DHT22;17103;48.316;11.558;2022-11-18T12:57:31;10.50;59.10
30288;DHT22;17103;48.316;11.558;2022-11-18T12:59:57;10.40;59.10
30288;DHT22;17103;48.316;11.558;2022-11-18T13:02:29;10.40;58.80
30288;DHT22;17103;48.316;11.558;2022-11-18T13:05:10;10.40;58.70
30288;DHT22;17103;48.316;11.558;2022-11-18T13:07:48;10.30;58.70
30288;DHT22;17103;48.316;11.558;2022-11-18T13:10:38;10.20;58.70
30288;DHT22;17103;48.316;11.558;2022-11-18T13:15:44;10.10;58.90
30288;DHT22;17103;48.316;11.558;2022-11-18T13:18:28;10.00;58.90
30288;DHT22;17103;48.316;11.558;2022-11-18T13:20:58;9.90;59.90
30288;DHT22;17103;48.316;11.558;2022-11-18T13:23:43;9.80;59.90
30288;DHT22;17103;48.316;11.558;2022-11-18T13:26:26;9.80;59.50
30288;DHT22;17103;48.316;11.558;2022-11-18T13:29:35;9.80;60.00
30288;DHT22;17103;48.316;11.558;2022-11-18T13:32:21;9.80;60.40
30288;DHT22;17103;48.316;11.558;2022-11-18T13:34:50;9.80;60.70
30288;DHT22;17103;48.316;11.558;2022-11-18T13:37:23;9.70;61.00
30288;DHT22;17103;48.316;11.558;2022-11-18T13:39:49;9.80;61.30
30288;DHT22;17103;48.316;11.558;2022-11-18T13:42:19;9.80;62.30
30288;DHT22;17103;48.316;11.558;2022-11-18T13:44:59;9.80;61.80
30288;DHT22;17103;48.316;11.558;2022-11-18T13:55:27;9.80;62.50
30288;DHT22;17103;48.316;11.558;2022-11-18T13:58:01;9.80;63.00
30288;DHT22;17103;48.316;11.558;2022-11-18T14:00:30;9.80;62.70
30288;DHT22;17103;48.316;11.558;2022-11-18T14:03:01;9.80;62.80
30288;DHT22;17103;48.316;11.558;2022-11-18T14:05:27;9.70;62.70
30288;DHT22;17103;48.316;11.558;2022-11-18T14:08:05;9.80;62.90
30288;DHT22;17103;48.316;11.558;2022-11-18T14:10:38;9.80;63.50
30288;DHT22;17103;48.316;11.558;2022-11-18T14:15:43;9.80;63.80
30288;DHT22;17103;48.316;11.558;2022-11-18T14:18:26;9.80;64.10
30288;DHT22;17103;48.316;11.558;2022-11-18T14:20:53;9.80;64.40
30288;DHT22;17103;48.316;11.558;2022-11-18T14:23:40;9.80;64.30
30288;DHT22;17103;48.316;11.558;2022-11-18T14:26:06;9.80;65.00
30288;DHT22;17103;48.316;11.558;2022-11-18T14:28:34;9.80;65.00
30288;DHT22;17103;48.316;11.558;2022-11-18T14:33:36;9.80;65.50
30288;DHT22;17103;48.316;11.558;2022-11-18T14:38:44;9.80;66.00
30288;DHT22;17103;48.316;11.558;2022-11-18T14:41:12;10.50;65.70
30288;DHT22;17103;48.316;11.558;2022-11-18T14:43:43;10.30;65.50
30288;DHT22;17103;48.316;11.558;2022-11-18T14:46:15;10.80;66.30
30288;DHT22;17103;48.316;11.558;2022-11-18T14:48:42;9.90;66.70
30288;DHT22;17103;48.316;11.558;2022-11-18T14:51:16;10.60;66.00
30288;DHT22;17103;48.316;11.558;2022-11-18T14:53:42;9.90;67.00
30288;DHT22;17103;48.316;11.558;2022-11-18T14:56:23;10.80;66.60
30288;DHT22;17103;48.316;11.558;2022-11-18T14:58:48;9.90;67.20
30288;DHT22;17103;48.316;11.558;2022-11-18T15:01:14;10.00;65.70
30288;DHT22;17103;48.316;11.558;2022-11-18T15:03:39;10.00;65.80
30288;DHT22;17103;48.316;11.558;2022-11-18T15:06:17;10.00;65.10
30288;DHT22;17103;48.316;11.558;2022-11-18T15:08:45;10.00;66.00
30288;DHT22;17103;48.316;11.558;2022-11-18T15:11:11;10.10;65.90
30288;DHT22;17103;48.316;11.558;2022-11-18T15:13:38;10.20;66.20
30288;DHT22;17103;48.316;11.558;2022-11-18T15:16:21;10.10;66.20
30288;DHT22;17103;48.316;11.558;2022-11-18T15:18:53;10.10;66.20
30288;DHT22;17103;48.316;11.558;2022-11-18T15:21:19;10.10;66.40
30288;DHT22;17103;48.316;11.558;2022-11-18T15:23:45;10.10;66.50
30288;DHT22;17103;48.316;11.558;2022-11-18T15:26:14;10.10;66.40
30288;DHT22;17103;48.316;11.558;2022-11-18T15:28:41;10.20;66.40
30288;DHT22;17103;48.316;11.558;2022-11-18T15:31:06;10.20;66.80
30288;DHT22;17103;48.316;11.558;2022-11-18T15:33:32;10.20;66.60
30288;DHT22;17103;48.316;11.558;2022-11-18T15:35:58;10.20;66.60
30288;DHT22;17103;48.316;11.558;2022-11-18T15:38:23;10.30;66.80
30288;DHT22;17103;48.316;11.558;2022-11-18T15:40:49;10.20;66.80
30288;DHT22;17103;48.316;11.558;2022-11-18T15:43:17;10.20;66.90
30288;DHT22;17103;48.316;11.558;2022-11-18T15:45:43;10.20;66.70
30288;DHT22;17103;48.316;11.558;2022-11-18T15:48:09;10.20;66.90
30288;DHT22;17103;48.316;11.558;2022-11-18T15:50:34;10.30;66.80
30288;DHT22;17103;48.316;11.558;2022-11-18T15:53:00;10.20;66.90
30288;DHT22;17103;48.316;11.558;2022-11-18T15:55:26;10.20;67.00
30288;DHT22;17103;48.316;11.558;2022-11-18T15:57:51;10.20;67.20
30288;DHT22;17103;48.316;11.558;2022-11-18T16:00:17;10.20;67.20
30288;DHT22;17103;48.316;11.558;2022-11-18T16:02:44;10.20;67.40
30288;DHT22;17103;48.316;11.558;2022-11-18T16:05:09;10.20;67.30
30288;DHT22;17103;48.316;11.558;2022-11-18T16:07:35;10.20;67.20
30288;DHT22;17103;48.316;11.558;2022-11-18T16:10:01;11.10;68.40
30288;DHT22;17103;48.316;11.558;2022-11-18T16:12:46;10.80;68.00
30288;DHT22;17103;48.316;11.558;2022-11-18T16:15:13;10.80;67.80
30288;DHT22;17103;48.316;11.558;2022-11-18T16:17:57;10.20;66.90
30288;DHT22;17103;48.316;11.558;2022-11-18T16:20:24;10.20;66.70
30288;DHT22;17103;48.316;11.558;2022-11-18T16:22:49;10.20;66.70
30288;DHT22;17103;48.316;11.558;2022-11-18T16:25:17;10.20;66.50
30288;DHT22;17103;48.316;11.558;2022-11-18T16:27:47;10.20;66.30
30288;DHT22;17103;48.316;11.558;2022-11-18T16:30:13;10.90;67.00
30288;DHT22;17103;48.316;11.558;2022-11-18T16:32:58;10.30;66.20
30288;DHT22;17103;48.316;11.558;2022-11-18T16:35:23;10.30;65.80
30288;DHT22;17103;48.316;11.558;2022-11-18T16:37:49;10.30;65.50
30288;DHT22;17103;48.316;11.558;2022-11-18T16:40:15;10.30;65.20
30288;DHT22;17103;48.316;11.558;2022-11-18T16:42:41;10.30;65.00
30288;DHT22;17103;48.316;11.558;2022-11-18T16:45:10;10.40;64.70
30288;DHT22;17103;48.316;11.558;2022-11-18T16:47:37;10.40;64.50
30288;DHT22;17103;48.316;11.558;2022-11-18T16:50:03;10.30;64.50
30288;DHT22;17103;48.316;11.558;2022-11-18T16:52:29;10.40;64.60
30288;DHT22;17103;48.316;11.558;2022-11-18T16:54:54;10.30;64.40
30288;DHT22;17103;48.316;11.558;2022-11-18T16:57:20;10.30;64.10
30288;DHT22;17103;48.316;11.558;2022-11-18T16:59:47;10.30;64.00
30288;DHT22;17103;48.316;11.558;2022-11-18T17:02:13;10.30;64.00
30288;DHT22;17103;48.316;11.558;2022-11-18T17:04:39;10.30;63.60
30288;DHT22;17103;48.316;11.558;2022-11-18T17:07:05;10.30;63.50
30288;DHT22;17103;48.316;11.558;2022-11-18T17:09:31;10.20;63.40
30288;DHT22;17103;48.316;11.558;2022-11-18T17:11:57;10.80;63.80
30288;DHT22;17103;48.316;11.558;2022-11-18T17:14:25;10.30;63.30
30288;DHT22;17103;48.316;11.558;2022-11-18T17:16:51;10.20;63.00